| time (UTC) | temp F | wind direction | speed knots | gust knots | rain 1hr in | rain 24hr in | rain mn in | humidity % | barometer mb |
| 20260506231522 | 46 | 94 | 0.0 | 0.0 | 0.00 | 0.69 | 0.69 | 96 | 1011.5 |
| 20260506231015 | 46 | 184 | 0.0 | 0.0 | 0.00 | 0.69 | 0.69 | 96 | 1011.8 |
| 20260506230510 | 46 | 199 | 0.0 | 0.0 | 0.00 | 0.69 | 0.69 | 95 | 1011.8 |
| 20260506230009 | 46 | 197 | 0.0 | 0.0 | 0.00 | 0.69 | 0.69 | 95 | 1011.7 |
| 20260506225505 | 46 | 2 | 0.0 | 0.0 | 0.00 | 0.69 | 0.69 | 95 | 1011.8 |
| 20260506225001 | 46 | 322 | 0.0 | 0.0 | 0.00 | 0.69 | 0.69 | 95 | 1011.9 |
| 20260506224458 | 46 | 305 | 0.0 | 0.0 | 0.00 | 0.69 | 0.69 | 94 | 1012.0 |
| 20260506223954 | 45 | 313 | 0.0 | 0.0 | 0.00 | 0.69 | 0.69 | 94 | 1011.9 |
| 20260506223450 | 45 | 313 | 0.0 | 0.9 | 0.00 | 0.69 | 0.69 | 94 | 1012.1 |
| 20260506222948 | 45 | 309 | 0.0 | 1.7 | 0.00 | 0.69 | 0.69 | 94 | 1012.1 |
| 20260506222444 | 45 | 311 | 0.9 | 1.7 | 0.00 | 0.69 | 0.69 | 95 | 1012.2 |
| 20260506221941 | 46 | 301 | 0.9 | 0.9 | 0.00 | 0.69 | 0.69 | 95 | 1012.4 |
| 20260506221438 | 45 | 304 | 0.9 | 1.7 | 0.00 | 0.69 | 0.69 | 95 | 1012.3 |
| 20260506220936 | 45 | 306 | 0.9 | 0.9 | 0.00 | 0.69 | 0.69 | 96 | 1012.1 |
| 20260506220431 | 45 | 306 | 0.0 | 0.9 | 0.00 | 0.69 | 0.69 | 96 | 1012.0 |
| 20260506215928 | 45 | 306 | 0.0 | 0.9 | 0.00 | 0.69 | 0.69 | 96 | 1012.2 |
| 20260506215424 | 46 | 316 | 0.0 | 0.0 | 0.00 | 0.69 | 0.69 | 96 | 1012.0 |
| 20260506214920 | 46 | 332 | 0.0 | 0.0 | 0.00 | 0.69 | 0.69 | 96 | 1011.9 |
| 20260506214417 | 45 | 318 | 0.0 | 0.0 | 0.00 | 0.69 | 0.69 | 96 | 1011.7 |
| 20260506213915 | 45 | 319 | 0.0 | 0.9 | 0.00 | 0.69 | 0.69 | 97 | 1011.7 |
| 20260506213412 | 45 | 307 | 1.7 | 2.6 | 0.00 | 0.69 | 0.69 | 97 | 1011.8 |
| 20260506212910 | 45 | 297 | 0.0 | 0.9 | 0.00 | 0.69 | 0.69 | 97 | 1011.8 |
| 20260506212405 | 45 | 301 | 2.6 | 3.5 | 0.00 | 0.69 | 0.69 | 97 | 1011.6 |
| 20260506211900 | 45 | 319 | 1.7 | 2.6 | 0.00 | 0.69 | 0.69 | 98 | 1011.5 |
| 20260506211356 | 45 | 308 | 1.7 | 1.7 | 0.00 | 0.69 | 0.69 | 98 | 1011.7 |
| 20260506210853 | 45 | 300 | 1.7 | 1.7 | 0.00 | 0.69 | 0.69 | 98 | 1011.7 |
| 20260506210350 | 45 | 307 | 1.7 | 1.7 | 0.00 | 0.69 | 0.69 | 98 | 1011.7 |
| 20260506205848 | 45 | 315 | 1.7 | 2.6 | 0.00 | 0.69 | 0.69 | 98 | 1011.4 |
| 20260506205343 | 45 | 300 | 1.7 | 1.7 | 0.00 | 0.69 | 0.69 | 98 | 1011.4 |
| 20260506204840 | 45 | 312 | 1.7 | 2.6 | 0.00 | 0.69 | 0.69 | 98 | 1011.3 |
| 20260506204338 | 45 | 323 | 3.5 | 3.5 | 0.07 | 0.69 | 0.69 | 99 | 1011.2 |
| 20260506203835 | 45 | 313 | 0.9 | 1.7 | 0.07 | 0.69 | 0.69 | 99 | 1011.1 |
| 20260506203332 | 45 | 307 | 1.7 | 1.7 | 0.00 | 0.68 | 0.68 | 99 | 1011.2 |
| 20260506202829 | 45 | 299 | 0.9 | 1.7 | 0.00 | 0.68 | 0.68 | 99 | 1011.2 |
| 20260506202326 | 45 | 316 | 0.9 | 1.7 | 0.00 | 0.68 | 0.68 | 99 | 1011.0 |
| 20260506201817 | 45 | 302 | 1.7 | 2.6 | 0.00 | 0.68 | 0.68 | 99 | 1010.9 |
| 20260506201314 | 45 | 304 | 0.9 | 1.7 | 0.00 | 0.68 | 0.68 | 99 | 1010.9 |
| 20260506200811 | 45 | 307 | 1.7 | 1.7 | 0.00 | 0.68 | 0.68 | 99 | 1010.9 |
| 20260506200307 | 45 | 316 | 2.6 | 2.6 | 0.00 | 0.68 | 0.68 | 99 | 1011.0 |
| 20260506195803 | 45 | 304 | 0.9 | 1.7 | 0.00 | 0.68 | 0.68 | 99 | 1011.1 |
| 20260506195300 | 45 | 320 | 1.7 | 2.6 | 0.00 | 0.68 | 0.68 | 99 | 1011.2 |
| 20260506194757 | 45 | 320 | 1.7 | 2.6 | 0.00 | 0.68 | 0.68 | 99 | 1011.1 |
| 20260506194254 | 45 | 297 | 1.7 | 2.6 | 0.00 | 0.68 | 0.68 | 99 | 1011.0 |
| 20260506193752 | 45 | 311 | 1.7 | 2.6 | 0.00 | 0.68 | 0.68 | 99 | 1011.0 |
| 20260506193248 | 45 | 310 | 1.7 | 2.6 | 0.00 | 0.68 | 0.68 | 99 | 1011.0 |
| 20260506192744 | 45 | 306 | 1.7 | 2.6 | 0.00 | 0.68 | 0.68 | 99 | 1010.8 |
| 20260506192241 | 45 | 307 | 1.7 | 2.6 | 0.00 | 0.68 | 0.68 | 99 | 1010.8 |
| 20260506191738 | 45 | 314 | 1.7 | 2.6 | 0.00 | 0.68 | 0.68 | 99 | 1010.6 |
| 20260506191235 | 45 | 322 | 0.9 | 1.7 | 0.05 | 0.68 | 0.68 | 99 | 1010.7 |
| 20260506190732 | 45 | 307 | 0.9 | 1.7 | 0.05 | 0.68 | 0.68 | 99 | 1010.6 |
| 20260506190228 | 45 | 304 | 1.7 | 2.6 | 0.00 | 0.67 | 0.67 | 99 | 1010.6 |
| 20260506185726 | 45 | 300 | 2.6 | 3.5 | 0.00 | 0.67 | 0.67 | 99 | 1010.8 |
| 20260506185222 | 45 | 321 | 2.6 | 2.6 | 0.07 | 0.67 | 0.67 | 99 | 1010.7 |
| 20260506184719 | 46 | 323 | 0.9 | 5.2 | 0.07 | 0.67 | 0.67 | 99 | 1010.6 |
| 20260506184217 | 46 | 312 | 2.6 | 3.5 | 0.00 | 0.66 | 0.66 | 99 | 1010.4 |
| 20260506183713 | 46 | 324 | 1.7 | 2.6 | 0.00 | 0.66 | 0.66 | 99 | 1010.3 |
| 20260506183209 | 46 | 313 | 1.7 | 1.7 | 0.00 | 0.66 | 0.66 | 99 | 1010.2 |
| 20260506182706 | 46 | 305 | 0.9 | 1.7 | 0.00 | 0.66 | 0.66 | 99 | 1010.2 |
| 20260506182203 | 46 | 309 | 0.9 | 1.7 | 0.00 | 0.66 | 0.66 | 99 | 1010.1 |
| 20260506181701 | 46 | 317 | 1.7 | 2.6 | 0.00 | 0.66 | 0.66 | 99 | 1010.2 |
| 20260506181158 | 47 | 314 | 0.9 | 1.7 | 0.00 | 0.66 | 0.66 | 99 | 1010.1 |
| 20260506180655 | 47 | 316 | 0.9 | 1.7 | 0.00 | 0.66 | 0.66 | 99 | 1010.0 |
| 20260506180151 | 47 | 321 | 0.0 | 0.9 | 0.00 | 0.66 | 0.66 | 99 | 1009.9 |
| 20260506175647 | 46 | 315 | 0.9 | 0.9 | 0.00 | 0.66 | 0.66 | 99 | 1009.8 |
| 20260506175145 | 46 | 306 | 1.7 | 1.7 | 0.00 | 0.66 | 0.66 | 99 | 1009.8 |
| 20260506174638 | 46 | 300 | 0.9 | 1.7 | 0.00 | 0.66 | 0.66 | 99 | 1009.9 |
| 20260506174134 | 46 | 307 | 0.0 | 0.0 | 0.00 | 0.66 | 0.66 | 99 | 1010.0 |
| 20260506173632 | 46 | 311 | 0.9 | 0.9 | 0.05 | 0.66 | 0.66 | 99 | 1009.8 |
| 20260506173128 | 46 | 309 | 0.0 | 0.9 | 0.05 | 0.66 | 0.66 | 99 | 1009.8 |
| 20260506172626 | 46 | 321 | 0.0 | 0.0 | 0.00 | 0.65 | 0.65 | 99 | 1009.7 |
| 20260506172121 | 46 | 306 | 0.9 | 1.7 | 0.00 | 0.65 | 0.65 | 99 | 1009.8 |
| 20260506171620 | 46 | 310 | 0.0 | 0.0 | 0.00 | 0.65 | 0.65 | 99 | 1009.8 |
| 20260506171117 | 46 | 318 | 0.0 | 0.0 | 0.00 | 0.65 | 0.65 | 99 | 1009.6 |
| 20260506170614 | 46 | 304 | 0.0 | 0.0 | 0.00 | 0.65 | 0.65 | 99 | 1009.7 |
| 20260506170111 | 46 | 319 | 0.0 | 0.0 | 0.00 | 0.65 | 0.65 | 99 | 1009.7 |
| 20260506165609 | 46 | 314 | 0.0 | 0.0 | 0.00 | 0.65 | 0.65 | 99 | 1009.8 |
| 20260506165059 | 46 | 325 | 0.0 | 0.0 | 0.07 | 0.65 | 0.65 | 99 | 1009.8 |
| 20260506164557 | 46 | 316 | 0.9 | 0.9 | 0.07 | 0.65 | 0.65 | 99 | 1009.8 |
| 20260506164054 | 45 | 328 | 0.0 | 0.9 | 0.07 | 0.64 | 0.64 | 99 | 1009.8 |
| 20260506163549 | 45 | 319 | 0.9 | 1.7 | 0.07 | 0.64 | 0.64 | 99 | 1010.0 |
| 20260506163045 | 45 | 319 | 1.7 | 1.7 | 0.00 | 0.63 | 0.63 | 99 | 1009.8 |
| 20260506162541 | 46 | 329 | 0.0 | 0.0 | 0.05 | 0.63 | 0.63 | 99 | 1009.7 |
| 20260506162033 | 46 | 322 | 0.0 | 0.0 | 0.07 | 0.62 | 0.62 | 99 | 1009.8 |
| 20260506161530 | 45 | 317 | 0.0 | 0.0 | 0.12 | 0.62 | 0.62 | 99 | 1009.9 |
| 20260506161027 | 46 | 323 | 0.0 | 0.0 | 0.05 | 0.61 | 0.61 | 99 | 1010.0 |
| 20260506160526 | 45 | 316 | 0.0 | 0.0 | 0.07 | 0.60 | 0.60 | 99 | 1010.0 |
| 20260506160022 | 46 | 320 | 0.0 | 0.0 | 0.07 | 0.60 | 0.60 | 99 | 1010.1 |
| 20260506155520 | 45 | 335 | 0.0 | 0.0 | 0.00 | 0.59 | 0.59 | 99 | 1010.0 |
| 20260506153652 | 44 | 327 | 0.0 | 0.0 | 0.07 | 0.58 | 0.58 | 99 | 1010.3 |
| 20260506153149 | 44 | 310 | 0.0 | 0.0 | 0.07 | 0.58 | 0.58 | 99 | 1010.3 |
| 20260506152646 | 45 | 330 | 0.0 | 0.0 | 0.00 | 0.57 | 0.57 | 99 | 1010.0 |
| 20260506152143 | 44 | 331 | 0.0 | 0.0 | 0.05 | 0.57 | 0.57 | 99 | 1010.1 |
| 20260506151642 | 45 | 311 | 0.0 | 0.0 | 0.05 | 0.57 | 0.57 | 99 | 1010.2 |
| 20260506151138 | 45 | 289 | 0.0 | 0.0 | 0.00 | 0.56 | 0.56 | 99 | 1009.9 |
| 20260506150635 | 45 | 344 | 0.0 | 0.0 | 0.00 | 0.56 | 0.56 | 99 | 1009.8 |
| 20260506150132 | 45 | 319 | 0.0 | 0.0 | 0.00 | 0.56 | 0.56 | 99 | 1009.8 |
| 20260506145629 | 45 | 320 | 0.0 | 0.0 | 0.07 | 0.56 | 0.56 | 99 | 1009.5 |
| 20260506145126 | 45 | 323 | 0.0 | 0.0 | 0.07 | 0.56 | 0.56 | 99 | 1009.5 |
| 20260506144624 | 44 | 311 | 0.0 | 0.9 | 0.00 | 0.55 | 0.55 | 99 | 1009.6 |
| 20260506144120 | 45 | 5 | 0.0 | 0.0 | 0.05 | 0.55 | 0.55 | 99 | 1009.7 |
| 20260506143618 | 45 | 344 | 0.0 | 0.0 | 0.05 | 0.55 | 0.55 | 99 | 1009.8 |
| 20260506143116 | 45 | 312 | 0.0 | 0.9 | 0.00 | 0.54 | 0.54 | 99 | 1009.8 |
| 20260506142614 | 45 | 324 | 0.0 | 0.9 | 0.07 | 0.54 | 0.54 | 99 | 1009.8 |
| 20260506142112 | 44 | 311 | 0.0 | 0.0 | 0.07 | 0.54 | 0.54 | 99 | 1009.8 |
| 20260506141609 | 44 | 307 | 0.0 | 0.9 | 0.05 | 0.53 | 0.53 | 99 | 1009.9 |
| 20260506141107 | 44 | 329 | 0.0 | 0.9 | 0.05 | 0.53 | 0.53 | 99 | 1009.9 |
| 20260506140604 | 45 | 291 | 0.9 | 0.9 | 0.07 | 0.52 | 0.52 | 99 | 1009.9 |
| 20260506135558 | 44 | 330 | 0.0 | 0.9 | 0.07 | 0.51 | 0.51 | 99 | 1009.9 |
| 20260506135054 | 44 | 330 | 0.0 | 0.9 | 0.07 | 0.51 | 0.51 | 99 | 1009.9 |
| 20260506134551 | 44 | 353 | 0.0 | 0.9 | 0.12 | 0.50 | 0.50 | 99 | 1010.0 |
| 20260506134047 | 44 | 340 | 0.0 | 0.9 | 0.12 | 0.50 | 0.50 | 99 | 1010.0 |
| 20260506133544 | 44 | 350 | 0.0 | 1.7 | 0.05 | 0.48 | 0.48 | 99 | 1010.0 |
| 20260506133041 | 44 | 316 | 0.9 | 0.9 | 0.12 | 0.47 | 0.47 | 99 | 1010.0 |
| 20260506132539 | 44 | 314 | 0.0 | 0.0 | 0.12 | 0.46 | 0.46 | 99 | 1010.0 |
| 20260506132036 | 44 | 336 | 0.9 | 0.9 | 0.19 | 0.45 | 0.45 | 99 | 1010.1 |
| 20260506131533 | 44 | 295 | 0.0 | 0.9 | 0.17 | 0.44 | 0.44 | 99 | 1010.1 |
| 20260506131029 | 45 | 350 | 0.0 | 0.0 | 0.12 | 0.42 | 0.42 | 99 | 1010.0 |
| 20260506130526 | 45 | 323 | 0.0 | 1.7 | 0.19 | 0.41 | 0.41 | 99 | 1010.0 |
| 20260506130024 | 45 | 331 | 0.9 | 1.7 | 0.14 | 0.39 | 0.39 | 99 | 1010.2 |
| 20260506125522 | 45 | 321 | 0.9 | 0.9 | 0.12 | 0.38 | 0.38 | 99 | 1010.0 |
| 20260506125019 | 45 | 329 | 0.0 | 0.0 | 0.12 | 0.37 | 0.37 | 99 | 1009.9 |
| 20260506124517 | 45 | 347 | 0.0 | 0.0 | 0.12 | 0.36 | 0.36 | 99 | 1009.9 |
| 20260506124015 | 45 | 309 | 0.0 | 0.0 | 0.12 | 0.35 | 0.35 | 99 | 1009.8 |
| 20260506123512 | 45 | 328 | 0.0 | 0.0 | 0.12 | 0.34 | 0.34 | 99 | 1009.6 |
| 20260506123010 | 45 | 323 | 0.0 | 0.0 | 0.12 | 0.33 | 0.33 | 99 | 1009.7 |
| 20260506122506 | 45 | 343 | 0.0 | 0.0 | 0.12 | 0.32 | 0.32 | 99 | 1009.8 |
| 20260506122005 | 45 | 317 | 0.0 | 0.0 | 0.12 | 0.31 | 0.31 | 99 | 1009.7 |
| 20260506121502 | 45 | 343 | 0.0 | 0.0 | 0.12 | 0.30 | 0.30 | 99 | 1009.7 |
| 20260506120958 | 45 | 332 | 0.0 | 0.9 | 0.05 | 0.29 | 0.29 | 99 | 1009.9 |
| 20260506120456 | 45 | 328 | 0.0 | 0.9 | 0.00 | 0.28 | 0.28 | 99 | 1009.8 |
| 20260506115953 | 45 | 336 | 0.0 | 0.9 | 0.07 | 0.28 | 0.28 | 99 | 1009.8 |
| 20260506115451 | 45 | 310 | 0.0 | 1.7 | 0.07 | 0.28 | 0.28 | 99 | 1009.9 |
| 20260506114949 | 45 | 301 | 0.9 | 1.7 | 0.00 | 0.27 | 0.27 | 99 | 1009.7 |
| 20260506114446 | 45 | 321 | 0.9 | 1.7 | 0.05 | 0.27 | 0.27 | 99 | 1009.9 |
| 20260506113945 | 45 | 322 | 0.9 | 1.7 | 0.05 | 0.27 | 0.27 | 99 | 1009.9 |
| 20260506113442 | 45 | 318 | 0.0 | 0.9 | 0.07 | 0.26 | 0.26 | 99 | 1009.9 |
| 20260506112938 | 45 | 299 | 0.9 | 1.7 | 0.14 | 0.26 | 0.26 | 99 | 1009.9 |
| 20260506112436 | 45 | 309 | 0.0 | 0.0 | 0.12 | 0.25 | 0.25 | 99 | 1010.1 |
| 20260506111933 | 45 | 328 | 0.9 | 1.7 | 0.12 | 0.24 | 0.24 | 99 | 1010.1 |
| 20260506111431 | 45 | 312 | 0.0 | 0.9 | 0.12 | 0.23 | 0.23 | 99 | 1010.3 |
| 20260506110928 | 45 | 330 | 0.0 | 0.0 | 0.12 | 0.22 | 0.22 | 99 | 1010.1 |
| 20260506110426 | 45 | 347 | 0.0 | 0.0 | 0.12 | 0.21 | 0.21 | 99 | 1010.0 |
| 20260506105922 | 45 | 354 | 0.0 | 0.0 | 0.05 | 0.20 | 0.20 | 99 | 1010.2 |
| 20260506105418 | 45 | 34 | 0.0 | 0.0 | 0.12 | 0.19 | 0.19 | 99 | 1010.2 |
| 20260506104916 | 45 | 85 | 0.0 | 0.0 | 0.12 | 0.18 | 0.18 | 99 | 1010.3 |
| 20260506104414 | 45 | 216 | 0.0 | 0.0 | 0.07 | 0.17 | 0.17 | 99 | 1010.3 |
| 20260506103912 | 45 | 287 | 0.0 | 0.0 | 0.05 | 0.16 | 0.16 | 99 | 1009.9 |
| 20260506103409 | 45 | 323 | 0.0 | 0.0 | 0.05 | 0.16 | 0.16 | 99 | 1009.9 |
| 20260506102906 | 45 | 357 | 0.0 | 0.0 | 0.07 | 0.15 | 0.15 | 99 | 1009.7 |
| 20260506102404 | 45 | 354 | 0.0 | 0.0 | 0.07 | 0.15 | 0.15 | 99 | 1010.0 |
| 20260506101901 | 45 | 297 | 0.0 | 0.0 | 0.00 | 0.14 | 0.14 | 99 | 1010.0 |
| 20260506101357 | 45 | 304 | 0.0 | 0.0 | 0.07 | 0.14 | 0.14 | 99 | 1009.9 |
| 20260506100854 | 45 | 229 | 0.0 | 0.0 | 0.07 | 0.14 | 0.14 | 99 | 1010.1 |
| 20260506100353 | 45 | 325 | 0.0 | 0.0 | 0.05 | 0.13 | 0.13 | 99 | 1010.2 |
| 20260506095850 | 45 | 328 | 0.0 | 0.0 | 0.12 | 0.13 | 0.13 | 99 | 1010.1 |
| 20260506095348 | 45 | 97 | 0.0 | 0.0 | 0.07 | 0.12 | 0.12 | 99 | 1010.3 |
| 20260506094844 | 45 | 322 | 0.0 | 0.0 | 0.05 | 0.11 | 0.11 | 99 | 1010.4 |
| 20260506094343 | 45 | 43 | 0.0 | 0.0 | 0.12 | 0.11 | 0.11 | 99 | 1010.5 |
| 20260506093841 | 45 | 308 | 0.0 | 0.0 | 0.07 | 0.10 | 0.10 | 99 | 1010.5 |
| 20260506093338 | 45 | 31 | 0.0 | 0.0 | 0.05 | 0.09 | 0.09 | 99 | 1010.7 |
| 20260506092835 | 45 | 299 | 0.9 | 1.7 | 0.05 | 0.09 | 0.09 | 99 | 1010.8 |
| 20260506092333 | 45 | 346 | 0.9 | 1.7 | 0.00 | 0.08 | 0.08 | 99 | 1010.4 |
| 20260506091830 | 45 | 247 | 0.9 | 1.7 | 0.07 | 0.08 | 0.08 | 99 | 1011.1 |
| 20260506091328 | 45 | 26 | 0.9 | 1.7 | 0.07 | 0.08 | 0.08 | 99 | 1011.1 |
| 20260506090825 | 45 | 328 | 0.0 | 0.9 | 0.00 | 0.07 | 0.07 | 99 | 1010.5 |
| 20260506090322 | 46 | 14 | 0.0 | 1.7 | 0.00 | 0.07 | 0.07 | 99 | 1010.5 |
| 20260506085819 | 46 | 6 | 0.0 | 0.9 | 0.05 | 0.07 | 0.07 | 99 | 1010.4 |
| 20260506085315 | 46 | 305 | 0.9 | 1.7 | 0.05 | 0.07 | 0.07 | 99 | 1011.0 |
| 20260506084812 | 46 | 6 | 1.7 | 1.7 | 0.07 | 0.06 | 0.06 | 99 | 1010.6 |
| 20260506084308 | 46 | 327 | 1.7 | 1.7 | 0.07 | 0.06 | 0.06 | 99 | 1010.3 |
| 20260506083805 | 47 | 346 | 1.7 | 1.7 | 0.05 | 0.05 | 0.05 | 99 | 1010.8 |
| 20260506083303 | 48 | 317 | 1.7 | 2.6 | 0.05 | 0.05 | 0.05 | 99 | 1010.7 |
| 20260506082800 | 48 | 9 | 0.0 | 0.0 | 0.00 | 0.04 | 0.04 | 99 | 1010.6 |
| 20260506082256 | 48 | 354 | 0.0 | 1.7 | 0.07 | 0.04 | 0.04 | 99 | 1010.6 |
| 20260506081753 | 48 | 335 | 0.0 | 0.0 | 0.07 | 0.04 | 0.04 | 99 | 1010.3 |
| 20260506081251 | 48 | 287 | 0.0 | 0.9 | 0.00 | 0.03 | 0.03 | 99 | 1010.4 |
| 20260506080749 | 48 | 311 | 0.0 | 0.0 | 0.05 | 0.03 | 0.03 | 99 | 1010.6 |
| 20260506080245 | 48 | 326 | 0.0 | 0.0 | 0.05 | 0.03 | 0.03 | 99 | 1010.7 |
| 20260506073229 | 47 | 351 | 0.0 | 0.0 | 0.00 | 0.02 | 0.02 | 99 | 1010.2 |
| 20260506072725 | 48 | 338 | 0.0 | 0.0 | 0.00 | 0.02 | 0.02 | 99 | 1010.3 |
| 20260506072223 | 48 | 36 | 0.0 | 0.0 | 0.00 | 0.02 | 0.02 | 99 | 1010.0 |
| 20260506071721 | 48 | 33 | 0.0 | 0.0 | 0.00 | 0.02 | 0.02 | 99 | 1010.2 |
| 20260506071218 | 48 | 345 | 0.0 | 0.0 | 0.00 | 0.02 | 0.02 | 99 | 1010.6 |
| 20260506070715 | 47 | 313 | 0.0 | 0.0 | 0.00 | 0.02 | 0.02 | 99 | 1010.5 |
| 20260506070212 | 48 | 44 | 0.0 | 0.0 | 0.00 | 0.02 | 0.02 | 99 | 1010.3 |
| 20260506062149 | 48 | 76 | 0.0 | 0.0 | 0.07 | 0.01 | 0.01 | 98 | 1011.1 |
| 20260506061645 | 48 | 92 | 0.0 | 0.9 | 0.00 | 0.00 | 0.00 | 98 | 1011.1 |
| 20260506061143 | 48 | 318 | 0.0 | 0.9 | 0.00 | 0.00 | 0.00 | 98 | 1011.5 |
| 20260506060641 | 48 | 44 | 0.0 | 0.0 | 0.00 | 0.00 | 0.00 | 98 | 1010.8 |
| 20260506060138 | 48 | 81 | 0.0 | 0.9 | 0.00 | 0.00 | 0.00 | 98 | 1010.8 |
| 20260506051110 | 49 | 312 | 0.9 | 0.9 | 0.00 | 0.00 | 0.00 | 98 | 1012.3 |
| 20260506050608 | 49 | 279 | 0.0 | 0.0 | 0.00 | 0.00 | 0.00 | 98 | 1012.0 |
| 20260506050105 | 49 | 109 | 0.0 | 0.9 | 0.00 | 0.00 | 0.00 | 98 | 1011.7 |
| 20260506045058 | 48 | 333 | 0.0 | 0.0 | 0.00 | 0.00 | 0.00 | 98 | 1011.8 |
| 20260506044556 | 49 | 320 | 0.0 | 0.0 | 0.00 | 0.00 | 0.00 | 98 | 1011.7 |
| 20260506044052 | 49 | 337 | 0.0 | 0.0 | 0.00 | 0.00 | 0.00 | 98 | 1012.0 |
| 20260506043549 | 49 | 329 | 0.0 | 0.0 | 0.00 | 0.00 | 0.00 | 98 | 1011.8 |
| 20260506043048 | 49 | 9 | 0.0 | 0.0 | 0.00 | 0.00 | 0.00 | 98 | 1012.1 |
| 20260506042547 | 49 | 340 | 0.0 | 0.0 | 0.00 | 0.00 | 0.00 | 98 | 1012.1 |
| 20260506042044 | 49 | 6 | 0.0 | 0.0 | 0.00 | 0.00 | 0.00 | 98 | 1012.1 |
| 20260506041543 | 49 | 148 | 0.0 | 0.0 | 0.00 | 0.00 | 0.00 | 98 | 1012.1 |
| 20260506041039 | 49 | 15 | 0.0 | 0.0 | 0.00 | 0.00 | 0.00 | 97 | 1011.7 |
| 20260506040537 | 49 | 19 | 0.0 | 0.0 | 0.00 | 0.00 | 0.00 | 97 | 1012.2 |
| 20260506040032 | 48 | 11 | 0.0 | 0.0 | 0.00 | 0.00 | 0.00 | 97 | 1012.1 |
| 20260506035530 | 49 | 8 | 0.0 | 0.0 | 0.05 | 0.24 | 0.24 | 97 | 1012.0 |
| 20260506035026 | 49 | 27 | 0.0 | 0.0 | 0.05 | 0.24 | 0.24 | 97 | 1011.9 |
| 20260506034524 | 49 | 322 | 0.0 | 0.0 | 0.00 | 0.23 | 0.23 | 97 | 1012.5 |
| 20260506034021 | 49 | 279 | 0.0 | 0.0 | 0.00 | 0.23 | 0.23 | 97 | 1012.3 |
| 20260506033518 | 48 | 58 | 0.0 | 0.0 | 0.00 | 0.23 | 0.23 | 97 | 1012.5 |
| 20260506033015 | 49 | 79 | 0.0 | 0.0 | 0.07 | 0.23 | 0.23 | 97 | 1012.5 |
| 20260506032513 | 49 | 79 | 0.0 | 0.0 | 0.12 | 0.23 | 0.23 | 97 | 1012.5 |
| 20260506032009 | 49 | 58 | 0.0 | 0.0 | 0.05 | 0.22 | 0.22 | 97 | 1012.2 |
| 20260506031507 | 49 | 97 | 0.0 | 0.0 | 0.00 | 0.21 | 0.21 | 97 | 1012.9 |
| 20260506031003 | 49 | 88 | 0.0 | 0.0 | 0.07 | 0.21 | 0.21 | 97 | 1012.6 |
| 20260506030502 | 49 | 84 | 0.0 | 0.0 | 0.07 | 0.21 | 0.21 | 96 | 1012.4 |
| 20260506025958 | 49 | 319 | 0.0 | 0.0 | 0.05 | 0.20 | 0.20 | 96 | 1012.5 |
| 20260506025455 | 49 | 173 | 0.0 | 0.0 | 0.12 | 0.20 | 0.20 | 96 | 1012.4 |
| 20260506024952 | 49 | 2 | 0.0 | 0.0 | 0.07 | 0.19 | 0.19 | 96 | 1012.3 |
| 20260506024448 | 49 | 343 | 0.0 | 0.0 | 0.00 | 0.18 | 0.18 | 96 | 1012.4 |
| 20260506023944 | 49 | 322 | 0.0 | 0.0 | 0.05 | 0.18 | 0.18 | 96 | 1012.5 |
| 20260506023441 | 49 | 2 | 0.0 | 0.0 | 0.05 | 0.18 | 0.18 | 96 | 1012.2 |
| 20260506022938 | 49 | 247 | 0.0 | 0.0 | 0.07 | 0.17 | 0.17 | 95 | 1012.8 |
| 20260506022436 | 49 | 291 | 0.0 | 0.0 | 0.12 | 0.17 | 0.17 | 95 | 1012.7 |
| 20260506021934 | 49 | 314 | 0.0 | 0.9 | 0.12 | 0.16 | 0.16 | 95 | 1012.5 |
| 20260506021430 | 49 | 309 | 0.9 | 1.7 | 0.12 | 0.15 | 0.15 | 95 | 1012.7 |
| 20260506020927 | 49 | 323 | 0.0 | 0.0 | 0.05 | 0.14 | 0.14 | 95 | 1012.7 |
| 20260506020425 | 49 | 191 | 0.0 | 0.0 | 0.00 | 0.13 | 0.13 | 95 | 1012.5 |
| 20260506015922 | 49 | 66 | 0.9 | 1.7 | 0.00 | 0.13 | 0.13 | 94 | 1011.4 |
| 20260506015420 | 49 | 281 | 0.0 | 0.9 | 0.00 | 0.13 | 0.13 | 94 | 1012.0 |
| 20260506014916 | 49 | 22 | 0.0 | 0.9 | 0.00 | 0.13 | 0.13 | 93 | 1011.8 |
| 20260506014414 | 49 | 3 | 0.0 | 0.9 | 0.00 | 0.13 | 0.13 | 93 | 1011.8 |
| 20260506013910 | 49 | 357 | 0.9 | 1.7 | 0.00 | 0.13 | 0.13 | 92 | 1012.3 |
| 20260506013408 | 49 | 328 | 0.9 | 0.9 | 0.00 | 0.13 | 0.13 | 92 | 1012.3 |
| 20260506012904 | 49 | 327 | 0.9 | 0.9 | 0.07 | 0.13 | 0.13 | 91 | 1012.3 |
| 20260506012401 | 49 | 310 | 1.7 | 2.6 | 0.07 | 0.13 | 0.13 | 90 | 1012.5 |
| 20260506011858 | 50 | 321 | 0.9 | 1.7 | 0.12 | 0.12 | 0.12 | 89 | 1012.4 |
| 20260506011355 | 50 | 310 | 1.7 | 2.6 | 0.05 | 0.11 | 0.11 | 87 | 1012.2 |
| 20260506010852 | 51 | 314 | 1.7 | 2.6 | 0.00 | 0.10 | 0.10 | 84 | 1012.6 |
| 20260506010350 | 51 | 311 | 3.5 | 3.5 | 0.00 | 0.10 | 0.10 | 83 | 1012.0 |
| 20260506005847 | 52 | 305 | 1.7 | 2.6 | 0.00 | 0.10 | 0.10 | 80 | 1011.8 |
| 20260506005344 | 53 | 319 | 3.5 | 6.1 | 0.00 | 0.10 | 0.10 | 76 | 1011.8 |
| 20260506004839 | 54 | 336 | 2.6 | 5.2 | 0.00 | 0.10 | 0.10 | 72 | 1011.8 |
| 20260506004337 | 55 | 308 | 3.5 | 5.2 | 0.00 | 0.10 | 0.10 | 70 | 1011.6 |
| 20260506003833 | 56 | 320 | 1.7 | 2.6 | 0.00 | 0.10 | 0.10 | 70 | 1011.3 |
| 20260506003329 | 56 | 309 | 2.6 | 2.6 | 0.00 | 0.10 | 0.10 | 68 | 1011.5 |
| 20260506002826 | 56 | 306 | 1.7 | 2.6 | 0.00 | 0.10 | 0.10 | 67 | 1011.2 |
| 20260506002323 | 57 | 313 | 1.7 | 1.7 | 0.00 | 0.10 | 0.10 | 68 | 1011.0 |
| 20260506001818 | 57 | 307 | 1.7 | 1.7 | 0.00 | 0.10 | 0.10 | 69 | 1010.9 |
| 20260506001316 | 57 | 294 | 0.9 | 2.6 | 0.00 | 0.10 | 0.10 | 68 | 1011.1 |
| 20260506000812 | 58 | 314 | 2.6 | 5.2 | 0.00 | 0.10 | 0.10 | 67 | 1011.1 |
| 20260506000310 | 58 | 312 | 3.5 | 5.2 | 0.00 | 0.10 | 0.10 | 69 | 1010.8 |
| 20260505235806 | 58 | 316 | 0.9 | 2.6 | 0.00 | 0.10 | 0.10 | 69 | 1010.7 |
| 20260505235305 | 58 | 314 | 0.9 | 2.6 | 0.00 | 0.10 | 0.10 | 69 | 1010.7 |
| 20260505234801 | 59 | 303 | 0.9 | 1.7 | 0.00 | 0.10 | 0.10 | 68 | 1010.4 |
| 20260505234259 | 59 | 312 | 1.7 | 5.2 | 0.00 | 0.10 | 0.10 | 68 | 1010.2 |
| 20260505233755 | 59 | 312 | 3.5 | 3.5 | 0.00 | 0.10 | 0.10 | 69 | 1009.9 |
| 20260505233253 | 59 | 317 | 5.2 | 6.1 | 0.00 | 0.10 | 0.10 | 67 | 1009.8 |
| 20260505232750 | 60 | 311 | 4.3 | 5.2 | 0.00 | 0.10 | 0.10 | 67 | 1009.8 |
| 20260505232248 | 60 | 305 | 3.5 | 5.2 | 0.00 | 0.10 | 0.10 | 67 | 1009.8 |
| 20260505231744 | 60 | 317 | 3.5 | 3.5 | 0.00 | 0.10 | 0.10 | 71 | 1009.6 |